AirNav   SIMCOM
 
 836 users online  

PN35 Flying R Airport
Harrisonville, Pennsylvania, USA

GOING TO HARRISONVILLE?


FAA INFORMATION EFFECTIVE 20 JULY 2017

Location

FAA Identifier: PN35
Lat/Long: 40-00-00.3090N / 078-04-59.0190W
40-00.005150N / 078-04.983650W
40.0000858 / -78.0830608
(estimated)
Elevation: 960 ft. / 293 m (estimated)
Variation: 09W (1985)
From city: 2 miles S of HARRISONVILLE, PA
Time zone: UTC -4 (UTC -5 during Standard Time)
Zip code: 17228

Airport Operations

Airport use: Private use. Permission required prior to landing
Activation date: 01/1974
Control tower: no
ARTCC: CLEVELAND CENTER
FSS: WILLIAMSPORT FLIGHT SERVICE STATION
Attendance: UNATNDD
Wind indicator: yes
Segmented circle: no

Nearby radio navigation aids

VOR radial/distance  VOR name  Freq  Var
THSr310/7.3ST THOMAS VORTAC115.0007W
HGRr337/(20.9)HAGERSTOWN VOR109.8007W
AOOr160/(22.0)ALTOONA VOR108.8007W
MRBr351/38.4MARTINSBURG VORTAC112.1007W
JSTr125/39.3JOHNSTOWN VORTAC113.0006W

 
NDB name  Hdg/Dist  Freq  Var  ID
CUMBERLAND065/37.231710WCBE -.-. -... .
STOYSTOWN108/38.620910WSYS ... -.-- ...

Airport Services

Runway Information

Runway 5/23

Dimensions: 1600 x 50 ft. / 488 x 15 m
Surface: turf
RUNWAY 5  RUNWAY 23
Traffic pattern: leftleft
Obstructions: none68 ft. tree, 77 ft. from runway

Airport Ownership and Management from official FAA records

Ownership: Privately-owned
Owner: KENNETH V. ROUZER
1171 POSSUM HOLLOW RD
HARRISONVILLE, PA 17228
Phone 717-485-3788
Manager: KENNETH V. ROUZER
1171 POSSUM HOLLOW RD
HARRISONVILLE, PA 17228
Phone 717-485-3788

Airport Operational Statistics

Aircraft based on the field: 1
Single engine airplanes: 1
    

Additional Remarks

RUNWAY 50-100 FT WIDE WITH SLIGHT DOG LEG.

Instrument Procedures

There are no published instrument procedures at PN35.

Some nearby airports with instrument procedures:

W35 - Potomac Airpark (19 nm S)
N68 - Franklin County Regional Airport (20 nm E)
KHMZ - Bedford County Airport (20 nm W)
KAOO - Altoona-Blair County Airport (21 nm NW)
KHGR - Hagerstown Regional Airport-Richard A Henson Field (24 nm SE)
 
Loc | Ops | Rwys | IFR | FBO | Links
Com | Nav | Svcs | Stats | Notes


 
Area around PN35 (Flying R Airport)
 
Road maps at: MapQuest Bing Google
 
Aerial photo
No photo
 
Sectional chart

 
Airport distance calculator
Flying to Flying R Airport? Find the distance to fly.

From to PN35

Sunrise and sunset
Times for 24-Jul-2017
 Local
(UTC-4)
 Zulu
(UTC)
Morning civil twilight05:3309:33
Sunrise06:0410:04
Sunset20:3300:33
Evening civil twilight21:0401:04

Current date and time
Zulu (UTC)  25-Jul-2017 03:15:06
Local (UTC-4)  24-Jul-2017 23:15:06
 
METAR
KHMZ 
20nm W 
250255Z AUTO 32006KT 10SM BKN044 19/13 A3000 RMK AO2 T01940132
KAOO 
21nm NW 
250253Z AUTO 33011G18KT 10SM FEW039 SCT050 19/13 A3000 RMK AO2 SLP149 T01890133 53022
KHGR 
24nm SE 
250253Z AUTO 33010KT 10SM CLR 24/17 A2994 RMK AO2 SLP142 T02440172 53030
KMRB 
36nm S 
250253Z AUTO 35005KT 10SM CLR 25/18 A2993 RMK AO2 SLP128 T02500178 53029 TSNO
KCBE 
39nm SW 
250250Z AUTO 36005KT 10SM BKN037 OVC043 23/16 A3002 RMK AO1
KJST 
39nm NW 
250254Z AUTO 30008KT 10SM BKN042 17/14 A3003 RMK AO2 SLP161 T01670139 51019
TAF
KAOO 
21nm NW 
242358Z 2500/2524 30009KT P6SM SCT035 BKN045 FM250800 29006KT P6SM OVC025 FM251200 30006KT P6SM SCT035
NOTAMs
Click for the latest NOTAMs
NOTAMs are issued by the DoD/FAA and will open in a separate window not controlled by AirNav.

 

 
 

Would you like to see your business listed on this page?

 If your business provides an interesting product or service to pilots, flight crews, aircraft, or users of the Flying R Airport, you should consider listing it here.  To start the listing process, click on the button below
 
Add a business
 

Other Pages about Flying R Airport

Update a link
 
Copyright © AirNav, LLC. All rights reserved. Privacy Policy  Contact